sensor_id;sensor_type;location;lat;lon;timestamp;pressure;altitude;pressure_sealevel;temperature;humidity
17260;BME280;8746;49.230;9.220;2024-02-16T00:01:31;99701.72;;;8.52;100.00
17260;BME280;8746;49.230;9.220;2024-02-16T00:03:56;99704.28;;;8.53;100.00
17260;BME280;8746;49.230;9.220;2024-02-16T00:06:21;99719.03;;;8.57;100.00
17260;BME280;8746;49.230;9.220;2024-02-16T00:08:47;99718.94;;;8.60;100.00
17260;BME280;8746;49.230;9.220;2024-02-16T00:11:13;99711.91;;;8.61;100.00
17260;BME280;8746;49.230;9.220;2024-02-16T00:13:38;99714.31;;;8.67;100.00
17260;BME280;8746;49.230;9.220;2024-02-16T00:16:04;99712.59;;;8.66;100.00
17260;BME280;8746;49.230;9.220;2024-02-16T00:18:29;99709.97;;;8.66;100.00
17260;BME280;8746;49.230;9.220;2024-02-16T00:20:54;99715.34;;;8.63;100.00
17260;BME280;8746;49.230;9.220;2024-02-16T00:23:20;99711.16;;;8.57;100.00
17260;BME280;8746;49.230;9.220;2024-02-16T00:25:47;99704.44;;;8.48;100.00
17260;BME280;8746;49.230;9.220;2024-02-16T00:28:13;99702.28;;;8.34;100.00
17260;BME280;8746;49.230;9.220;2024-02-16T00:30:38;99701.41;;;8.34;100.00
17260;BME280;8746;49.230;9.220;2024-02-16T00:33:04;99701.41;;;8.34;100.00
17260;BME280;8746;49.230;9.220;2024-02-16T00:35:29;99708.44;;;8.33;100.00
17260;BME280;8746;49.230;9.220;2024-02-16T00:38:00;99705.81;;;8.33;100.00
17260;BME280;8746;49.230;9.220;2024-02-16T00:40:26;99698.69;;;8.37;100.00
17260;BME280;8746;49.230;9.220;2024-02-16T00:42:51;99694.22;;;8.39;100.00
17260;BME280;8746;49.230;9.220;2024-02-16T00:45:17;99703.94;;;8.37;100.00
17260;BME280;8746;49.230;9.220;2024-02-16T00:47:42;99699.59;;;8.36;100.00
17260;BME280;8746;49.230;9.220;2024-02-16T00:50:10;99695.25;;;8.35;100.00
17260;BME280;8746;49.230;9.220;2024-02-16T00:52:36;99691.72;;;8.36;100.00
17260;BME280;8746;49.230;9.220;2024-02-16T00:55:02;99694.34;;;8.36;100.00
17260;BME280;8746;49.230;9.220;2024-02-16T00:57:29;99689.69;;;8.44;100.00
17260;BME280;8746;49.230;9.220;2024-02-16T00:59:54;99694.06;;;8.44;100.00
17260;BME280;8746;49.230;9.220;2024-02-16T01:02:20;99682.78;;;8.40;100.00
17260;BME280;8746;49.230;9.220;2024-02-16T01:04:46;99683.75;;;8.38;100.00
17260;BME280;8746;49.230;9.220;2024-02-16T01:07:12;99693.53;;;8.34;100.00
17260;BME280;8746;49.230;9.220;2024-02-16T01:09:37;99695.16;;;8.38;100.00
17260;BME280;8746;49.230;9.220;2024-02-16T01:12:03;99704.56;;;8.44;100.00
17260;BME280;8746;49.230;9.220;2024-02-16T01:14:28;99700.28;;;8.41;100.00
17260;BME280;8746;49.230;9.220;2024-02-16T01:16:53;99698.53;;;8.42;100.00
17260;BME280;8746;49.230;9.220;2024-02-16T01:19:19;99693.75;;;8.28;100.00
17260;BME280;8746;49.230;9.220;2024-02-16T01:21:44;99686.88;;;8.24;100.00
17260;BME280;8746;49.230;9.220;2024-02-16T01:24:12;99693.06;;;8.23;100.00
17260;BME280;8746;49.230;9.220;2024-02-16T01:26:38;99694.88;;;8.21;100.00
17260;BME280;8746;49.230;9.220;2024-02-16T01:29:03;99691.38;;;8.20;100.00
17260;BME280;8746;49.230;9.220;2024-02-16T01:31:29;99687.78;;;8.23;100.00
17260;BME280;8746;49.230;9.220;2024-02-16T01:33:54;99692.16;;;8.24;100.00
17260;BME280;8746;49.230;9.220;2024-02-16T01:36:19;99704.47;;;8.22;100.00
17260;BME280;8746;49.230;9.220;2024-02-16T01:38:45;99704.31;;;8.26;100.00
17260;BME280;8746;49.230;9.220;2024-02-16T01:41:10;99701.53;;;8.31;100.00
17260;BME280;8746;49.230;9.220;2024-02-16T01:43:36;99691.03;;;8.31;100.00
17260;BME280;8746;49.230;9.220;2024-02-16T01:46:01;99685.47;;;8.13;100.00
17260;BME280;8746;49.230;9.220;2024-02-16T01:48:27;99689.81;;;8.14;100.00
17260;BME280;8746;49.230;9.220;2024-02-16T01:50:54;99683.56;;;8.18;100.00
17260;BME280;8746;49.230;9.220;2024-02-16T01:53:19;99688.50;;;8.28;100.00
17260;BME280;8746;49.230;9.220;2024-02-16T01:55:46;99703.28;;;8.30;100.00
17260;BME280;8746;49.230;9.220;2024-02-16T01:58:11;99697.06;;;8.33;100.00
17260;BME280;8746;49.230;9.220;2024-02-16T02:00:37;99691.03;;;8.31;100.00
17260;BME280;8746;49.230;9.220;2024-02-16T02:03:03;99690.06;;;8.33;100.00
17260;BME280;8746;49.230;9.220;2024-02-16T02:05:29;99695.25;;;8.35;100.00
17260;BME280;8746;49.230;9.220;2024-02-16T02:07:54;99691.06;;;8.29;100.00
17260;BME280;8746;49.230;9.220;2024-02-16T02:10:19;99687.63;;;8.27;100.00
17260;BME280;8746;49.230;9.220;2024-02-16T02:12:45;99677.34;;;8.21;100.00
17260;BME280;8746;49.230;9.220;2024-02-16T02:15:10;99672.13;;;8.19;100.00
17260;BME280;8746;49.230;9.220;2024-02-16T02:17:37;99676.00;;;8.09;100.00
17260;BME280;8746;49.230;9.220;2024-02-16T02:20:02;99669.28;;;8.00;100.00
17260;BME280;8746;49.230;9.220;2024-02-16T02:22:34;99660.38;;;8.05;100.00
17260;BME280;8746;49.230;9.220;2024-02-16T02:24:59;99664.63;;;8.09;100.00
17260;BME280;8746;49.230;9.220;2024-02-16T02:27:25;99667.06;;;8.15;100.00
17260;BME280;8746;49.230;9.220;2024-02-16T02:29:50;99661.66;;;8.18;100.00
17260;BME280;8746;49.230;9.220;2024-02-16T02:32:16;99669.72;;;8.13;100.00
17260;BME280;8746;49.230;9.220;2024-02-16T02:34:41;99664.25;;;8.19;100.00
17260;BME280;8746;49.230;9.220;2024-02-16T02:37:07;99664.16;;;8.23;100.00
17260;BME280;8746;49.230;9.220;2024-02-16T02:39:32;99665.88;;;8.24;100.00
17260;BME280;8746;49.230;9.220;2024-02-16T02:41:58;99659.50;;;8.29;100.00
17260;BME280;8746;49.230;9.220;2024-02-16T02:44:24;99657.47;;;8.38;100.00
17260;BME280;8746;49.230;9.220;2024-02-16T02:46:50;99648.91;;;8.32;100.00
17260;BME280;8746;49.230;9.220;2024-02-16T02:49:16;99648.28;;;8.26;100.00
17260;BME280;8746;49.230;9.220;2024-02-16T02:51:42;99638.47;;;8.31;100.00
17260;BME280;8746;49.230;9.220;2024-02-16T02:54:08;99642.91;;;8.29;100.00
17260;BME280;8746;49.230;9.220;2024-02-16T02:56:33;99633.06;;;8.34;100.00
17260;BME280;8746;49.230;9.220;2024-02-16T02:58:59;99637.66;;;8.29;100.00
17260;BME280;8746;49.230;9.220;2024-02-16T03:01:24;99647.41;;;8.25;100.00
17260;BME280;8746;49.230;9.220;2024-02-16T03:03:49;99655.22;;;8.27;100.00
17260;BME280;8746;49.230;9.220;2024-02-16T03:06:19;99661.66;;;8.18;100.00
17260;BME280;8746;49.230;9.220;2024-02-16T03:08:44;99652.88;;;8.19;100.00
17260;BME280;8746;49.230;9.220;2024-02-16T03:11:10;99655.44;;;8.21;100.00
17260;BME280;8746;49.230;9.220;2024-02-16T03:13:36;99658.81;;;8.24;100.00
17260;BME280;8746;49.230;9.220;2024-02-16T03:16:01;99646.56;;;8.25;100.00
17260;BME280;8746;49.230;9.220;2024-02-16T03:18:30;99651.81;;;8.25;100.00
17260;BME280;8746;49.230;9.220;2024-02-16T03:20:56;99663.19;;;8.25;100.00
17260;BME280;8746;49.230;9.220;2024-02-16T03:23:22;99662.56;;;8.18;100.00
17260;BME280;8746;49.230;9.220;2024-02-16T03:25:48;99656.34;;;8.19;100.00
17260;BME280;8746;49.230;9.220;2024-02-16T03:28:13;99655.56;;;8.17;100.00
17260;BME280;8746;49.230;9.220;2024-02-16T03:30:39;99653.84;;;8.16;100.00
17260;BME280;8746;49.230;9.220;2024-02-16T03:33:04;99657.28;;;8.18;100.00
17260;BME280;8746;49.230;9.220;2024-02-16T03:35:30;99652.06;;;8.17;100.00
17260;BME280;8746;49.230;9.220;2024-02-16T03:37:55;99663.47;;;8.16;100.00
17260;BME280;8746;49.230;9.220;2024-02-16T03:40:22;99648.59;;;8.16;100.00
17260;BME280;8746;49.230;9.220;2024-02-16T03:42:48;99652.25;;;8.12;100.00
17260;BME280;8746;49.230;9.220;2024-02-16T03:45:13;99655.66;;;8.14;100.00
17260;BME280;8746;49.230;9.220;2024-02-16T03:47:40;99660.22;;;8.09;100.00
17260;BME280;8746;49.230;9.220;2024-02-16T03:50:07;99656.84;;;8.06;100.00
17260;BME280;8746;49.230;9.220;2024-02-16T03:52:32;99656.97;;;8.02;100.00
17260;BME280;8746;49.230;9.220;2024-02-16T03:54:58;99658.78;;;8.00;100.00
17260;BME280;8746;49.230;9.220;2024-02-16T03:57:24;99660.44;;;8.03;100.00
17260;BME280;8746;49.230;9.220;2024-02-16T03:59:50;99659.53;;;8.04;100.00
17260;BME280;8746;49.230;9.220;2024-02-16T04:02:15;99657.69;;;8.06;100.00
17260;BME280;8746;49.230;9.220;2024-02-16T04:04:40;99655.06;;;8.06;100.00
17260;BME280;8746;49.230;9.220;2024-02-16T04:07:06;99646.41;;;8.04;100.00
17260;BME280;8746;49.230;9.220;2024-02-16T04:09:32;99659.53;;;8.04;100.00
17260;BME280;8746;49.230;9.220;2024-02-16T04:11:58;99661.25;;;8.05;100.00
17260;BME280;8746;49.230;9.220;2024-02-16T04:14:23;99665.56;;;8.06;100.00
17260;BME280;8746;49.230;9.220;2024-02-16T04:16:48;99663.81;;;8.07;100.00
17260;BME280;8746;49.230;9.220;2024-02-16T04:19:14;99668.31;;;8.03;100.00
17260;BME280;8746;49.230;9.220;2024-02-16T04:21:39;99663.97;;;8.02;100.00
17260;BME280;8746;49.230;9.220;2024-02-16T04:24:05;99673.50;;;8.05;100.00
17260;BME280;8746;49.230;9.220;2024-02-16T04:26:30;99663.91;;;8.03;100.00
17260;BME280;8746;49.230;9.220;2024-02-16T04:28:56;99673.50;;;8.05;100.00
17260;BME280;8746;49.230;9.220;2024-02-16T04:31:21;99664.78;;;8.04;100.00
17260;BME280;8746;49.230;9.220;2024-02-16T04:33:47;99673.50;;;8.05;100.00
17260;BME280;8746;49.230;9.220;2024-02-16T04:36:12;99677.03;;;8.05;100.00
17260;BME280;8746;49.230;9.220;2024-02-16T04:38:38;99677.03;;;8.03;100.00
17260;BME280;8746;49.230;9.220;2024-02-16T04:41:06;99676.97;;;8.07;100.00
17260;BME280;8746;49.230;9.220;2024-02-16T04:43:32;99678.63;;;8.09;100.00
17260;BME280;8746;49.230;9.220;2024-02-16T04:45:57;99681.16;;;8.12;100.00
17260;BME280;8746;49.230;9.220;2024-02-16T04:48:22;99685.38;;;8.16;100.00
17260;BME280;8746;49.230;9.220;2024-02-16T04:50:48;99696.72;;;8.18;100.00
17260;BME280;8746;49.230;9.220;2024-02-16T04:53:13;99701.97;;;8.18;100.00
17260;BME280;8746;49.230;9.220;2024-02-16T04:55:38;99699.34;;;8.18;100.00
17260;BME280;8746;49.230;9.220;2024-02-16T04:58:04;99695.84;;;8.18;100.00
17260;BME280;8746;49.230;9.220;2024-02-16T05:00:35;99689.88;;;8.13;100.00
17260;BME280;8746;49.230;9.220;2024-02-16T05:03:00;99691.75;;;8.09;100.00
17260;BME280;8746;49.230;9.220;2024-02-16T05:05:26;99692.78;;;8.05;100.00
17260;BME280;8746;49.230;9.220;2024-02-16T05:07:51;99707.06;;;7.96;100.00
17260;BME280;8746;49.230;9.220;2024-02-16T05:10:16;99694.09;;;7.92;100.00
17260;BME280;8746;49.230;9.220;2024-02-16T05:12:42;99689.84;;;7.88;100.00
17260;BME280;8746;49.230;9.220;2024-02-16T05:15:08;99688.31;;;7.80;100.00
17260;BME280;8746;49.230;9.220;2024-02-16T05:17:34;99684.84;;;7.80;100.00
17260;BME280;8746;49.230;9.220;2024-02-16T05:19:59;99689.56;;;7.70;100.00
17260;BME280;8746;49.230;9.220;2024-02-16T05:22:25;99704.69;;;7.62;100.00
17260;BME280;8746;49.230;9.220;2024-02-16T05:24:50;99712.63;;;7.60;100.00
17260;BME280;8746;49.230;9.220;2024-02-16T05:27:15;99711.84;;;7.57;100.00
17260;BME280;8746;49.230;9.220;2024-02-16T05:29:41;99727.69;;;7.53;100.00
17260;BME280;8746;49.230;9.220;2024-02-16T05:32:07;99720.94;;;7.46;100.00
17260;BME280;8746;49.230;9.220;2024-02-16T05:34:32;99719.28;;;7.42;100.00
17260;BME280;8746;49.230;9.220;2024-02-16T05:37:05;99717.75;;;7.35;100.00
17260;BME280;8746;49.230;9.220;2024-02-16T05:39:36;99723.25;;;7.27;100.00
17260;BME280;8746;49.230;9.220;2024-02-16T05:42:08;99727.72;;;7.24;100.00
17260;BME280;8746;49.230;9.220;2024-02-16T05:44:34;99721.66;;;7.21;100.00
17260;BME280;8746;49.230;9.220;2024-02-16T05:46:59;99720.94;;;7.16;100.00
17260;BME280;8746;49.230;9.220;2024-02-16T05:49:24;99721.00;;;7.15;100.00
17260;BME280;8746;49.230;9.220;2024-02-16T05:51:50;99712.31;;;7.13;100.00
17260;BME280;8746;49.230;9.220;2024-02-16T05:54:34;99715.03;;;7.10;100.00
17260;BME280;8746;49.230;9.220;2024-02-16T05:56:59;99717.69;;;7.08;100.00
17260;BME280;8746;49.230;9.220;2024-02-16T05:59:24;99719.59;;;7.03;100.00
17260;BME280;8746;49.230;9.220;2024-02-16T06:01:52;99723.16;;;7.00;100.00
17260;BME280;8746;49.230;9.220;2024-02-16T06:04:17;99726.63;;;7.02;100.00
17260;BME280;8746;49.230;9.220;2024-02-16T06:06:42;99731.03;;;7.00;100.00
17260;BME280;8746;49.230;9.220;2024-02-16T06:09:08;99727.75;;;6.94;100.00
17260;BME280;8746;49.230;9.220;2024-02-16T06:11:36;99733.13;;;6.87;100.00
17260;BME280;8746;49.230;9.220;2024-02-16T06:14:02;99733.31;;;6.81;100.00
17260;BME280;8746;49.230;9.220;2024-02-16T06:16:27;99727.34;;;6.76;100.00
17260;BME280;8746;49.230;9.220;2024-02-16T06:18:53;99731.75;;;6.74;100.00
17260;BME280;8746;49.230;9.220;2024-02-16T06:21:18;99733.59;;;6.72;100.00
17260;BME280;8746;49.230;9.220;2024-02-16T06:23:43;99731.84;;;6.71;100.00
17260;BME280;8746;49.230;9.220;2024-02-16T06:26:08;99738.91;;;6.69;100.00
17260;BME280;8746;49.230;9.220;2024-02-16T06:28:34;99740.72;;;6.67;100.00
17260;BME280;8746;49.230;9.220;2024-02-16T06:30:59;99747.66;;;6.68;100.00
17260;BME280;8746;49.230;9.220;2024-02-16T06:33:24;99742.50;;;6.65;100.00
17260;BME280;8746;49.230;9.220;2024-02-16T06:35:50;99746.81;;;6.67;100.00
17260;BME280;8746;49.230;9.220;2024-02-16T06:38:15;99752.13;;;6.64;100.00
17260;BME280;8746;49.230;9.220;2024-02-16T06:40:41;99746.13;;;6.61;100.00
17260;BME280;8746;49.230;9.220;2024-02-16T06:43:06;99758.41;;;6.58;100.00
17260;BME280;8746;49.230;9.220;2024-02-16T06:45:31;99753.16;;;6.58;100.00
17260;BME280;8746;49.230;9.220;2024-02-16T06:47:57;99759.09;;;6.65;100.00
17260;BME280;8746;49.230;9.220;2024-02-16T06:50:22;99753.91;;;6.64;100.00
17260;BME280;8746;49.230;9.220;2024-02-16T06:52:47;99753.84;;;6.65;100.00
17260;BME280;8746;49.230;9.220;2024-02-16T06:55:13;99767.84;;;6.66;100.00
17260;BME280;8746;49.230;9.220;2024-02-16T06:57:38;99761.09;;;6.57;100.00
17260;BME280;8746;49.230;9.220;2024-02-16T07:00:04;99770.69;;;6.56;100.00
17260;BME280;8746;49.230;9.220;2024-02-16T07:02:30;99773.97;;;6.65;100.00
17260;BME280;8746;49.230;9.220;2024-02-16T07:04:56;99780.03;;;6.67;100.00
17260;BME280;8746;49.230;9.220;2024-02-16T07:07:21;99780.72;;;6.73;100.00
17260;BME280;8746;49.230;9.220;2024-02-16T07:09:46;99782.34;;;6.79;100.00
17260;BME280;8746;49.230;9.220;2024-02-16T07:12:12;99791.91;;;6.80;100.00
17260;BME280;8746;49.230;9.220;2024-02-16T07:14:37;99794.38;;;6.86;100.00
17260;BME280;8746;49.230;9.220;2024-02-16T07:17:03;99800.41;;;6.90;100.00
17260;BME280;8746;49.230;9.220;2024-02-16T07:19:28;99802.41;;;6.80;100.00
17260;BME280;8746;49.230;9.220;2024-02-16T07:21:54;99796.00;;;6.90;100.00
17260;BME280;8746;49.230;9.220;2024-02-16T07:24:19;99793.44;;;6.87;100.00
17260;BME280;8746;49.230;9.220;2024-02-16T07:26:45;99790.81;;;6.89;100.00
17260;BME280;8746;49.230;9.220;2024-02-16T07:29:10;99798.38;;;7.00;100.00
17260;BME280;8746;49.230;9.220;2024-02-16T07:31:38;99803.47;;;7.04;100.00
17260;BME280;8746;49.230;9.220;2024-02-16T07:34:03;99811.22;;;7.09;100.00
17260;BME280;8746;49.230;9.220;2024-02-16T07:36:29;99813.72;;;7.14;100.00
17260;BME280;8746;49.230;9.220;2024-02-16T07:38:54;99811.88;;;7.17;100.00
17260;BME280;8746;49.230;9.220;2024-02-16T07:41:20;99810.88;;;7.21;100.00
17260;BME280;8746;49.230;9.220;2024-02-16T07:43:45;99808.06;;;7.28;100.00
17260;BME280;8746;49.230;9.220;2024-02-16T07:46:10;99816.63;;;7.34;100.00
17260;BME280;8746;49.230;9.220;2024-02-16T07:48:36;99816.50;;;7.39;100.00
17260;BME280;8746;49.230;9.220;2024-02-16T07:51:01;99810.31;;;7.40;100.00
17260;BME280;8746;49.230;9.220;2024-02-16T07:53:28;99822.19;;;7.53;100.00
17260;BME280;8746;49.230;9.220;2024-02-16T07:55:53;99824.91;;;7.50;100.00
17260;BME280;8746;49.230;9.220;2024-02-16T07:58:19;99828.97;;;7.61;100.00
17260;BME280;8746;49.230;9.220;2024-02-16T08:00:44;99829.91;;;7.60;100.00
17260;BME280;8746;49.230;9.220;2024-02-16T08:03:10;99828.66;;;7.72;100.00
17260;BME280;8746;49.230;9.220;2024-02-16T08:05:35;99820.41;;;7.84;100.00
17260;BME280;8746;49.230;9.220;2024-02-16T08:08:00;99831.59;;;7.91;100.00
17260;BME280;8746;49.230;9.220;2024-02-16T08:10:26;99833.22;;;7.95;100.00
17260;BME280;8746;49.230;9.220;2024-02-16T08:12:51;99830.94;;;8.12;100.00
17260;BME280;8746;49.230;9.220;2024-02-16T08:15:18;99830.22;;;8.34;100.00
17260;BME280;8746;49.230;9.220;2024-02-16T08:17:49;99827.13;;;8.49;100.00
17260;BME280;8746;49.230;9.220;2024-02-16T08:20:15;99831.25;;;8.82;100.00
17260;BME280;8746;49.230;9.220;2024-02-16T08:22:41;99825.53;;;8.96;100.00
17260;BME280;8746;49.230;9.220;2024-02-16T08:25:07;99816.50;;;9.03;100.00
17260;BME280;8746;49.230;9.220;2024-02-16T08:27:32;99822.34;;;9.11;100.00
17260;BME280;8746;49.230;9.220;2024-02-16T08:29:58;99817.78;;;9.17;100.00
17260;BME280;8746;49.230;9.220;2024-02-16T08:32:23;99824.41;;;9.27;100.00
17260;BME280;8746;49.230;9.220;2024-02-16T08:34:49;99820.41;;;9.17;100.00
17260;BME280;8746;49.230;9.220;2024-02-16T08:37:16;99825.00;;;9.35;100.00
17260;BME280;8746;49.230;9.220;2024-02-16T08:39:41;99818.88;;;9.35;100.00
17260;BME280;8746;49.230;9.220;2024-02-16T08:42:07;99814.34;;;9.38;100.00
17260;BME280;8746;49.230;9.220;2024-02-16T08:44:36;99822.06;;;9.43;100.00
17260;BME280;8746;49.230;9.220;2024-02-16T08:47:02;99815.81;;;9.45;100.00
17260;BME280;8746;49.230;9.220;2024-02-16T08:49:28;99814.97;;;9.45;100.00
17260;BME280;8746;49.230;9.220;2024-02-16T08:51:53;99818.97;;;9.55;100.00
17260;BME280;8746;49.230;9.220;2024-02-16T08:54:18;99810.72;;;9.65;100.00
17260;BME280;8746;49.230;9.220;2024-02-16T08:56:45;99813.63;;;9.81;100.00
17260;BME280;8746;49.230;9.220;2024-02-16T08:59:10;99825.13;;;9.78;100.00
17260;BME280;8746;49.230;9.220;2024-02-16T09:01:39;99827.28;;;9.90;100.00
17260;BME280;8746;49.230;9.220;2024-02-16T09:04:05;99832.00;;;10.04;100.00
17260;BME280;8746;49.230;9.220;2024-02-16T09:06:31;99829.38;;;10.04;100.00
17260;BME280;8746;49.230;9.220;2024-02-16T09:08:57;99831.22;;;10.24;100.00
17260;BME280;8746;49.230;9.220;2024-02-16T09:11:23;99836.13;;;10.34;100.00
17260;BME280;8746;49.230;9.220;2024-02-16T09:13:49;99842.38;;;10.53;100.00
17260;BME280;8746;49.230;9.220;2024-02-16T09:16:15;99841.59;;;10.51;100.00
17260;BME280;8746;49.230;9.220;2024-02-16T09:18:40;99837.44;;;10.66;100.00
17260;BME280;8746;49.230;9.220;2024-02-16T09:21:06;99844.25;;;10.72;100.00
17260;BME280;8746;49.230;9.220;2024-02-16T09:23:32;99841.06;;;10.84;100.00
17260;BME280;8746;49.230;9.220;2024-02-16T09:25:58;99849.06;;;10.83;100.00
17260;BME280;8746;49.230;9.220;2024-02-16T09:28:29;99840.66;;;10.94;100.00
17260;BME280;8746;49.230;9.220;2024-02-16T09:30:55;99847.00;;;11.10;100.00
17260;BME280;8746;49.230;9.220;2024-02-16T09:33:22;99851.94;;;11.18;100.00
17260;BME280;8746;49.230;9.220;2024-02-16T09:35:48;99851.25;;;11.33;100.00
17260;BME280;8746;49.230;9.220;2024-02-16T09:38:13;99857.34;;;11.35;100.00
17260;BME280;8746;49.230;9.220;2024-02-16T09:40:38;99856.63;;;11.51;100.00
17260;BME280;8746;49.230;9.220;2024-02-16T09:43:04;99858.34;;;11.52;100.00
17260;BME280;8746;49.230;9.220;2024-02-16T09:45:30;99868.66;;;11.37;100.00
17260;BME280;8746;49.230;9.220;2024-02-16T09:47:57;99870.28;;;11.42;100.00
17260;BME280;8746;49.230;9.220;2024-02-16T09:50:23;99873.00;;;11.59;100.00
17260;BME280;8746;49.230;9.220;2024-02-16T09:52:49;99867.44;;;11.65;100.00
17260;BME280;8746;49.230;9.220;2024-02-16T09:55:16;99870.59;;;11.74;100.00
17260;BME280;8746;49.230;9.220;2024-02-16T09:57:42;99869.56;;;11.57;100.00
17260;BME280;8746;49.230;9.220;2024-02-16T10:00:09;99880.50;;;11.68;100.00
17260;BME280;8746;49.230;9.220;2024-02-16T10:02:45;99875.53;;;12.00;100.00
17260;BME280;8746;49.230;9.220;2024-02-16T10:05:18;99878.09;;;12.21;100.00
17260;BME280;8746;49.230;9.220;2024-02-16T10:07:44;99875.91;;;12.29;100.00
17260;BME280;8746;49.230;9.220;2024-02-16T10:10:39;99878.97;;;12.39;100.00
17260;BME280;8746;49.230;9.220;2024-02-16T10:13:05;99878.91;;;12.41;99.14
17260;BME280;8746;49.230;9.220;2024-02-16T10:15:31;99877.59;;;12.67;100.00
17260;BME280;8746;49.230;9.220;2024-02-16T10:18:04;99889.06;;;12.85;100.00
17260;BME280;8746;49.230;9.220;2024-02-16T10:20:31;99884.56;;;12.87;99.58
17260;BME280;8746;49.230;9.220;2024-02-16T10:23:07;99881.53;;;12.77;95.92
17260;BME280;8746;49.230;9.220;2024-02-16T10:25:34;99881.25;;;12.82;97.32
17260;BME280;8746;49.230;9.220;2024-02-16T10:28:05;99885.72;;;12.81;93.96
17260;BME280;8746;49.230;9.220;2024-02-16T10:30:35;99897.44;;;12.58;96.73
17260;BME280;8746;49.230;9.220;2024-02-16T10:33:03;99887.41;;;12.47;94.90
17260;BME280;8746;49.230;9.220;2024-02-16T10:35:29;99895.91;;;12.54;97.57
17260;BME280;8746;49.230;9.220;2024-02-16T10:37:55;99886.41;;;12.68;96.58
17260;BME280;8746;49.230;9.220;2024-02-16T10:40:22;99896.78;;;12.90;95.44
17260;BME280;8746;49.230;9.220;2024-02-16T10:42:50;99895.00;;;13.08;96.94
17260;BME280;8746;49.230;9.220;2024-02-16T10:45:17;99896.91;;;13.22;95.20
17260;BME280;8746;49.230;9.220;2024-02-16T10:47:42;99890.69;;;13.23;94.75
17260;BME280;8746;49.230;9.220;2024-02-16T10:50:07;99898.31;;;13.29;94.61
17260;BME280;8746;49.230;9.220;2024-02-16T10:52:36;99900.34;;;13.41;94.53
17260;BME280;8746;49.230;9.220;2024-02-16T10:55:05;99897.28;;;13.31;92.01
17260;BME280;8746;49.230;9.220;2024-02-16T10:57:30;99894.97;;;13.25;92.67
17260;BME280;8746;49.230;9.220;2024-02-16T10:59:59;99898.22;;;13.30;92.71
17260;BME280;8746;49.230;9.220;2024-02-16T11:02:24;99898.16;;;13.50;94.45
17260;BME280;8746;49.230;9.220;2024-02-16T11:04:52;99896.28;;;13.68;94.22
17260;BME280;8746;49.230;9.220;2024-02-16T11:07:19;99900.00;;;13.81;92.19
17260;BME280;8746;49.230;9.220;2024-02-16T11:09:45;99898.38;;;13.94;90.50
17260;BME280;8746;49.230;9.220;2024-02-16T11:12:14;99899.25;;;13.95;90.28
17260;BME280;8746;49.230;9.220;2024-02-16T11:14:42;99898.47;;;14.09;89.30
17260;BME280;8746;49.230;9.220;2024-02-16T11:17:12;99893.16;;;14.25;89.64
17260;BME280;8746;49.230;9.220;2024-02-16T11:19:46;99895.41;;;14.17;89.95
17260;BME280;8746;49.230;9.220;2024-02-16T11:22:16;99892.06;;;14.29;87.15
17260;BME280;8746;49.230;9.220;2024-02-16T11:24:46;99892.28;;;14.56;86.18
17260;BME280;8746;49.230;9.220;2024-02-16T11:27:12;99885.94;;;14.75;84.69
17260;BME280;8746;49.230;9.220;2024-02-16T11:29:39;99884.75;;;14.95;84.68
17260;BME280;8746;49.230;9.220;2024-02-16T11:32:07;99894.25;;;14.99;82.14
17260;BME280;8746;49.230;9.220;2024-02-16T11:34:33;99891.59;;;14.99;82.06
17260;BME280;8746;49.230;9.220;2024-02-16T11:37:00;99889.84;;;14.84;84.07
17260;BME280;8746;49.230;9.220;2024-02-16T11:39:26;99890.81;;;14.97;84.90
17260;BME280;8746;49.230;9.220;2024-02-16T11:42:19;99895.22;;;15.13;83.19
17260;BME280;8746;49.230;9.220;2024-02-16T11:44:55;99885.47;;;15.28;82.67
17260;BME280;8746;49.230;9.220;2024-02-16T11:47:21;99889.00;;;15.28;81.66
17260;BME280;8746;49.230;9.220;2024-02-16T11:50:04;99883.09;;;15.37;81.43
17260;BME280;8746;49.230;9.220;2024-02-16T11:52:29;99886.94;;;15.62;78.94
17260;BME280;8746;49.230;9.220;2024-02-16T11:54:55;99889.19;;;15.54;78.92
17260;BME280;8746;49.230;9.220;2024-02-16T11:57:22;99883.50;;;15.60;78.67
17260;BME280;8746;49.230;9.220;2024-02-16T11:59:47;99883.97;;;15.52;77.32
17260;BME280;8746;49.230;9.220;2024-02-16T12:02:17;99884.22;;;15.77;77.95
17260;BME280;8746;49.230;9.220;2024-02-16T12:04:57;99882.09;;;15.83;77.71
17260;BME280;8746;49.230;9.220;2024-02-16T12:07:25;99887.13;;;15.88;78.44
17260;BME280;8746;49.230;9.220;2024-02-16T12:10:01;99889.75;;;15.74;79.06
17260;BME280;8746;49.230;9.220;2024-02-16T12:12:27;99886.25;;;15.59;78.98
17260;BME280;8746;49.230;9.220;2024-02-16T12:14:56;99882.28;;;15.51;79.25
17260;BME280;8746;49.230;9.220;2024-02-16T12:17:21;99876.19;;;15.49;80.72
17260;BME280;8746;49.230;9.220;2024-02-16T12:19:47;99871.72;;;15.50;81.55
17260;BME280;8746;49.230;9.220;2024-02-16T12:22:22;99880.00;;;15.45;81.21
17260;BME280;8746;49.230;9.220;2024-02-16T12:24:49;99878.81;;;15.20;80.68
17260;BME280;8746;49.230;9.220;2024-02-16T12:27:15;99876.09;;;15.22;80.86
17260;BME280;8746;49.230;9.220;2024-02-16T12:29:41;99874.38;;;15.21;81.04
17260;BME280;8746;49.230;9.220;2024-02-16T12:32:07;99873.72;;;15.32;81.58
17260;BME280;8746;49.230;9.220;2024-02-16T12:34:34;99877.03;;;15.35;80.75
17260;BME280;8746;49.230;9.220;2024-02-16T12:37:00;99883.88;;;15.39;81.58
17260;BME280;8746;49.230;9.220;2024-02-16T12:39:25;99880.44;;;15.52;79.97
17260;BME280;8746;49.230;9.220;2024-02-16T12:41:51;99880.94;;;15.59;79.40
17260;BME280;8746;49.230;9.220;2024-02-16T12:44:16;99881.50;;;15.64;79.40
17260;BME280;8746;49.230;9.220;2024-02-16T12:46:42;99881.28;;;15.67;79.58
17260;BME280;8746;49.230;9.220;2024-02-16T12:49:08;99881.22;;;15.83;78.60
17260;BME280;8746;49.230;9.220;2024-02-16T12:51:34;99887.56;;;15.66;79.14
17260;BME280;8746;49.230;9.220;2024-02-16T12:54:00;99886.22;;;15.73;79.64
17260;BME280;8746;49.230;9.220;2024-02-16T12:56:29;99881.19;;;15.97;77.53
17260;BME280;8746;49.230;9.220;2024-02-16T12:58:54;99883.38;;;16.05;77.12
17260;BME280;8746;49.230;9.220;2024-02-16T13:01:21;99882.13;;;16.11;77.04
17260;BME280;8746;49.230;9.220;2024-02-16T13:03:47;99882.78;;;16.14;77.27
17260;BME280;8746;49.230;9.220;2024-02-16T13:06:12;99887.56;;;15.95;78.89